Time;durP1;ratioP1;P1;durP2;ratioP2;P2;SDS_P1;SDS_P2;PMS_P1;PMS_P2;Temp;Humidity;BMP_temperature;BMP_pressure;BME280_temperature;BME280_humidity;BME280_pressure;Samples;Min_cycle;Max_cycle;Signal;HPM_P1;HPM_P2
2023/07/17 00:00:12;;;;;;;;;;;17.60;99.90;;;;;;5114575;28;19915;-41
2023/07/17 00:02:39;;;;;;;;;;;17.60;99.90;;;;;;5114068;28;19908;-42
2023/07/17 00:05:05;;;;;;;;;;;17.60;99.90;;;;;;5114378;28;19915;-43
2023/07/17 00:07:30;;;;;;;;;;;17.60;99.90;;;;;;5114534;28;20011;-43
2023/07/17 00:09:56;;;;;;;;;;;17.60;99.90;;;;;;5113712;27;20018;-42
2023/07/17 00:12:22;;;;;;;;;;;17.60;99.90;;;;;;5134893;27;20396;-44
2023/07/17 00:14:47;;;;;;;;;;;17.60;99.90;;;;;;5133195;27;19912;-48
2023/07/17 00:17:14;;;;;;;;;;;17.60;99.90;;;;;;5127627;27;19915;-42
2023/07/17 00:19:39;;;;;;;;;;;17.60;99.90;;;;;;5114409;28;19960;-42
2023/07/17 00:22:06;;;;;;;;;;;17.60;99.90;;;;;;5113079;28;20006;-42
2023/07/17 00:24:31;;;;;;;;;;;17.60;99.90;;;;;;5113947;28;19917;-42
2023/07/17 00:26:57;;;;;;;;;;;17.60;99.90;;;;;;5114275;28;19907;-43
2023/07/17 00:29:23;;;;;;;;;;;17.60;99.90;;;;;;5113338;28;20113;-41
2023/07/17 00:31:50;;;;;;;;;;;17.60;99.90;;;;;;5114103;28;20165;-43
2023/07/17 00:34:16;;;;;;;;;;;17.60;99.90;;;;;;5114030;28;19998;-42
2023/07/17 00:36:42;;;;;;;;;;;17.60;99.90;;;;;;5112726;28;19908;-41
2023/07/17 00:39:07;;;;;;;;;;;17.60;99.90;;;;;;5113856;28;19972;-41
2023/07/17 00:41:33;;;;;;;;;;;17.50;99.90;;;;;;5113757;28;19920;-43
2023/07/17 00:43:58;;;;;;;;;;;17.50;99.90;;;;;;5113013;28;19909;-42
2023/07/17 00:46:24;;;;;;;;;;;17.50;99.90;;;;;;5113849;28;19914;-41
2023/07/17 00:48:49;;;;;;;;;;;17.60;99.90;;;;;;5113682;28;19908;-44
2023/07/17 00:51:15;;;;;;;;;;;17.60;99.90;;;;;;5113112;28;19908;-42
2023/07/17 00:53:42;;;;;;;;;;;17.60;99.90;;;;;;5113741;28;20386;-42
2023/07/17 00:56:08;;;;;;;;;;;17.60;99.90;;;;;;5113456;28;20243;-43
2023/07/17 00:58:33;;;;;;;;;;;17.50;99.90;;;;;;5113045;28;19914;-42
2023/07/17 01:00:59;;;;;;;;;;;17.40;99.90;;;;;;5113532;28;19976;-41
2023/07/17 01:03:24;;;;;;;;;;;17.30;99.90;;;;;;5113627;28;19998;-42
2023/07/17 01:05:50;;;;;;;;;;;17.30;99.90;;;;;;5112685;28;19914;-41
2023/07/17 01:08:15;;;;;;;;;;;17.20;99.90;;;;;;5113423;28;20393;-43
2023/07/17 01:10:41;;;;;;;;;;;17.10;99.90;;;;;;5131680;27;19920;-42
2023/07/17 01:13:10;;;;;;;;;;;17.10;99.90;;;;;;5133109;27;20049;-43
2023/07/17 01:15:35;;;;;;;;;;;17.00;99.90;;;;;;5134095;27;19907;-41
2023/07/17 01:18:01;;;;;;;;;;;17.00;99.90;;;;;;5133614;27;19998;-42
2023/07/17 01:20:26;;;;;;;;;;;17.00;99.90;;;;;;5131163;27;20328;-41
2023/07/17 01:22:53;;;;;;;;;;;16.90;99.90;;;;;;5131404;27;19915;-44
2023/07/17 01:25:18;;;;;;;;;;;16.90;99.90;;;;;;5133238;27;20281;-42
2023/07/17 01:27:44;;;;;;;;;;;16.90;99.90;;;;;;5133769;27;19998;-42
2023/07/17 01:30:10;;;;;;;;;;;16.90;99.90;;;;;;5133863;27;20366;-41
2023/07/17 01:32:35;;;;;;;;;;;16.90;99.90;;;;;;5132295;28;19907;-45
2023/07/17 01:35:01;;;;;;;;;;;16.90;99.90;;;;;;5113164;28;19915;-41
2023/07/17 01:37:26;;;;;;;;;;;16.90;99.90;;;;;;5113385;28;20278;-44
2023/07/17 01:39:51;;;;;;;;;;;16.90;99.90;;;;;;5112244;28;20427;-42
2023/07/17 01:42:17;;;;;;;;;;;16.80;99.90;;;;;;5113064;28;19908;-43
2023/07/17 01:44:42;;;;;;;;;;;16.80;99.90;;;;;;5113091;28;19960;-43
2023/07/17 01:47:08;;;;;;;;;;;16.80;99.90;;;;;;5113069;28;19914;-42
2023/07/17 01:49:33;;;;;;;;;;;16.80;99.90;;;;;;5117116;28;19916;-43
2023/07/17 01:51:59;;;;;;;;;;;16.80;99.90;;;;;;5117160;28;19967;-44
2023/07/17 01:54:24;;;;;;;;;;;16.70;99.90;;;;;;5116492;28;19908;-44
2023/07/17 01:56:51;;;;;;;;;;;16.80;99.90;;;;;;5117079;28;19908;-43
2023/07/17 01:59:17;;;;;;;;;;;16.70;99.90;;;;;;5116953;28;20366;-42
2023/07/17 02:01:42;;;;;;;;;;;16.70;99.90;;;;;;5116311;28;19918;-42
2023/07/17 02:04:08;;;;;;;;;;;16.70;99.90;;;;;;5117016;28;20273;-43
2023/07/17 02:06:33;;;;;;;;;;;16.70;99.90;;;;;;5116912;28;19907;-42
2023/07/17 02:08:58;;;;;;;;;;;16.70;99.90;;;;;;5116011;27;19943;-41
2023/07/17 02:11:27;;;;;;;;;;;16.60;99.90;;;;;;5137423;27;20006;-43
2023/07/17 02:13:53;;;;;;;;;;;16.70;99.90;;;;;;5137266;27;19985;-44
2023/07/17 02:16:18;;;;;;;;;;;16.60;99.90;;;;;;5136527;27;20346;-41
2023/07/17 02:18:44;;;;;;;;;;;16.60;99.90;;;;;;5128136;27;19919;-43
2023/07/17 02:21:09;;;;;;;;;;;16.60;99.90;;;;;;5116350;28;19908;-45
2023/07/17 02:23:35;;;;;;;;;;;16.50;99.90;;;;;;5115924;28;20366;-42
2023/07/17 02:26:00;;;;;;;;;;;16.50;99.90;;;;;;5121173;27;19912;-42
2023/07/17 02:28:26;;;;;;;;;;;16.50;99.90;;;;;;5131849;27;19916;-48
2023/07/17 02:30:51;;;;;;;;;;;16.50;99.90;;;;;;5124032;27;19971;-44
2023/07/17 02:33:17;;;;;;;;;;;16.40;99.90;;;;;;5128459;27;19992;-42
2023/07/17 02:35:43;;;;;;;;;;;16.40;99.90;;;;;;5115607;28;19911;-43
2023/07/17 02:38:08;;;;;;;;;;;16.40;99.90;;;;;;5116267;28;19915;-43
2023/07/17 02:40:33;;;;;;;;;;;16.40;99.90;;;;;;5115371;27;19971;-43
2023/07/17 02:42:59;;;;;;;;;;;16.30;99.90;;;;;;5114343;28;19908;-43
2023/07/17 02:45:24;;;;;;;;;;;16.30;99.90;;;;;;5115112;28;20006;-41
2023/07/17 02:47:50;;;;;;;;;;;16.30;99.90;;;;;;5114769;28;19911;-42
2023/07/17 02:50:16;;;;;;;;;;;16.30;99.90;;;;;;5114061;28;20002;-43
2023/07/17 02:52:41;;;;;;;;;;;16.30;99.90;;;;;;5114858;28;19908;-43
2023/07/17 02:55:07;;;;;;;;;;;16.30;99.90;;;;;;5121206;28;19961;-43
2023/07/17 02:57:34;;;;;;;;;;;16.20;99.90;;;;;;5134402;27;19911;-42
2023/07/17 03:00:00;;;;;;;;;;;16.20;99.90;;;;;;5135192;28;19908;-41
2023/07/17 03:02:25;;;;;;;;;;;16.20;99.90;;;;;;5135292;28;19907;-42
2023/07/17 03:04:51;;;;;;;;;;;16.20;99.90;;;;;;5134385;28;19994;-42
2023/07/17 03:07:16;;;;;;;;;;;16.10;99.90;;;;;;5120240;28;19915;-43
2023/07/17 03:09:42;;;;;;;;;;;16.10;99.90;;;;;;5114400;28;20006;-42
2023/07/17 03:12:07;;;;;;;;;;;16.10;99.90;;;;;;5113725;28;20263;-44
2023/07/17 03:14:33;;;;;;;;;;;16.00;99.90;;;;;;5114607;28;19907;-41
2023/07/17 03:16:58;;;;;;;;;;;16.00;99.90;;;;;;5114398;28;19912;-43
2023/07/17 03:19:24;;;;;;;;;;;16.00;99.90;;;;;;5131014;28;19949;-43
2023/07/17 03:21:49;;;;;;;;;;;16.00;99.90;;;;;;5134594;28;19911;-44
2023/07/17 03:24:15;;;;;;;;;;;16.00;99.90;;;;;;5134875;28;19961;-41
2023/07/17 03:26:40;;;;;;;;;;;15.90;99.90;;;;;;5134022;28;19907;-41
2023/07/17 03:29:06;;;;;;;;;;;15.90;99.90;;;;;;5131303;28;20302;-44
2023/07/17 03:31:31;;;;;;;;;;;15.90;99.90;;;;;;5132074;28;19954;-41
2023/07/17 03:33:57;;;;;;;;;;;15.80;99.90;;;;;;5134031;28;19907;-42
2023/07/17 03:36:22;;;;;;;;;;;15.80;99.90;;;;;;5134814;28;19911;-41
2023/07/17 03:38:48;;;;;;;;;;;15.80;99.90;;;;;;5133923;28;19960;-42
2023/07/17 03:41:17;;;;;;;;;;;15.80;99.90;;;;;;5070592;27;1795279;-43
2023/07/17 03:43:42;;;;;;;;;;;15.80;99.90;;;;;;5121030;27;19911;-41
2023/07/17 03:46:08;;;;;;;;;;;15.80;99.90;;;;;;5113715;27;20350;-42
2023/07/17 03:48:33;;;;;;;;;;;15.80;99.90;;;;;;5135244;27;19955;-41
2023/07/17 03:50:59;;;;;;;;;;;15.70;99.90;;;;;;5128589;27;19919;-43
2023/07/17 03:53:24;;;;;;;;;;;15.70;99.90;;;;;;5121687;27;20426;-43
2023/07/17 03:55:50;;;;;;;;;;;15.70;99.90;;;;;;5114770;28;19908;-41
2023/07/17 03:58:15;;;;;;;;;;;15.70;99.90;;;;;;5135362;27;20287;-42
2023/07/17 04:00:41;;;;;;;;;;;15.70;99.90;;;;;;5138405;27;19918;-42
2023/07/17 04:03:06;;;;;;;;;;;15.70;99.90;;;;;;5135122;27;19912;-42
2023/07/17 04:05:32;;;;;;;;;;;15.70;99.90;;;;;;5135212;27;19922;-45
2023/07/17 04:07:57;;;;;;;;;;;15.70;99.90;;;;;;5134284;27;20273;-42
2023/07/17 04:10:23;;;;;;;;;;;15.70;99.90;;;;;;5129226;27;20317;-43
2023/07/17 04:12:48;;;;;;;;;;;15.70;99.90;;;;;;5114523;28;19915;-41
2023/07/17 04:15:14;;;;;;;;;;;15.60;99.90;;;;;;5113607;28;20320;-43
2023/07/17 04:17:40;;;;;;;;;;;15.60;99.90;;;;;;5114440;28;19947;-44
2023/07/17 04:20:09;;;;;;;;;;;15.60;99.90;;;;;;5145531;27;20009;-42
2023/07/17 04:22:34;;;;;;;;;;;15.60;99.90;;;;;;5154882;27;19953;-42
2023/07/17 04:25:01;;;;;;;;;;;15.70;99.90;;;;;;5155479;27;19907;-41
2023/07/17 04:27:27;;;;;;;;;;;15.70;99.90;;;;;;5155617;27;19959;-41
2023/07/17 04:29:52;;;;;;;;;;;15.70;99.90;;;;;;5144716;27;19923;-43
2023/07/17 04:32:18;;;;;;;;;;;15.70;99.90;;;;;;5134740;27;19946;-43
2023/07/17 04:34:43;;;;;;;;;;;15.70;99.90;;;;;;5134655;27;19907;-42
2023/07/17 04:37:09;;;;;;;;;;;15.70;99.90;;;;;;5118395;27;19978;-41
2023/07/17 04:39:34;;;;;;;;;;;15.70;99.90;;;;;;5113894;27;19911;-41
2023/07/17 04:42:00;;;;;;;;;;;15.70;99.90;;;;;;5113739;28;19962;-43
2023/07/17 04:44:25;;;;;;;;;;;15.70;99.90;;;;;;5113216;28;20446;-43
2023/07/17 04:46:50;;;;;;;;;;;15.70;99.90;;;;;;5113846;28;19912;-42
2023/07/17 04:49:16;;;;;;;;;;;15.70;99.90;;;;;;5113117;28;20396;-42
2023/07/17 04:51:41;;;;;;;;;;;15.80;99.90;;;;;;5113807;28;19919;-46
2023/07/17 04:54:07;;;;;;;;;;;15.80;99.90;;;;;;5113650;28;20002;-42
2023/07/17 04:56:32;;;;;;;;;;;15.80;99.90;;;;;;5113153;28;20369;-42
2023/07/17 04:58:59;;;;;;;;;;;15.80;99.90;;;;;;5113538;28;19911;-43
2023/07/17 05:01:24;;;;;;;;;;;15.80;99.90;;;;;;5131785;27;20251;-41
2023/07/17 05:03:49;;;;;;;;;;;15.80;99.90;;;;;;5133083;27;20369;-41
2023/07/17 05:06:15;;;;;;;;;;;15.80;99.90;;;;;;5134059;27;19908;-42
2023/07/17 05:08:40;;;;;;;;;;;15.90;99.90;;;;;;5127603;27;19911;-42
2023/07/17 05:11:06;;;;;;;;;;;15.90;99.90;;;;;;5120736;27;19923;-43
2023/07/17 05:13:31;;;;;;;;;;;15.90;99.90;;;;;;5133996;27;19952;-46
2023/07/17 05:15:57;;;;;;;;;;;16.00;99.90;;;;;;5129895;27;19918;-43
2023/07/17 05:18:23;;;;;;;;;;;16.00;99.90;;;;;;5112698;28;20426;-43
2023/07/17 05:20:49;;;;;;;;;;;16.00;99.90;;;;;;5113206;28;19907;-44
2023/07/17 05:23:14;;;;;;;;;;;16.00;99.90;;;;;;5113321;28;19907;-43
2023/07/17 05:25:41;;;;;;;;;;;16.10;99.90;;;;;;5112588;28;20432;-44
2023/07/17 05:28:06;;;;;;;;;;;16.10;99.90;;;;;;5113395;28;19982;-44
2023/07/17 05:30:32;;;;;;;;;;;16.10;99.90;;;;;;5133566;27;20056;-42
2023/07/17 05:32:58;;;;;;;;;;;16.10;99.90;;;;;;5123831;27;19911;-42
2023/07/17 05:35:23;;;;;;;;;;;16.10;99.90;;;;;;5131510;28;19989;-41
2023/07/17 05:37:49;;;;;;;;;;;16.20;99.90;;;;;;5125471;27;19920;-42
2023/07/17 05:40:14;;;;;;;;;;;16.20;99.90;;;;;;5152614;27;20429;-44
2023/07/17 05:42:40;;;;;;;;;;;16.20;99.90;;;;;;5137675;27;19912;-44
2023/07/17 05:45:05;;;;;;;;;;;16.30;99.90;;;;;;5133991;27;20427;-43
2023/07/17 05:47:31;;;;;;;;;;;16.40;99.90;;;;;;5129263;28;20005;-42
2023/07/17 05:49:56;;;;;;;;;;;16.50;99.90;;;;;;5124100;28;20309;-43
2023/07/17 05:52:22;;;;;;;;;;;16.50;99.90;;;;;;5113710;28;20402;-45
2023/07/17 05:54:47;;;;;;;;;;;16.60;99.90;;;;;;5129684;28;19911;-43
2023/07/17 05:57:13;;;;;;;;;;;16.70;99.90;;;;;;5129283;28;19920;-42
2023/07/17 05:59:38;;;;;;;;;;;16.80;99.90;;;;;;5123801;27;19911;-43
2023/07/17 06:02:04;;;;;;;;;;;16.90;99.90;;;;;;5128760;28;19994;-44
2023/07/17 06:04:30;;;;;;;;;;;17.00;99.90;;;;;;5127130;28;19912;-42
2023/07/17 06:06:55;;;;;;;;;;;17.00;99.90;;;;;;5126023;28;19926;-43
2023/07/17 06:09:20;;;;;;;;;;;17.10;99.90;;;;;;5140108;27;19925;-41
2023/07/17 06:11:46;;;;;;;;;;;17.10;99.90;;;;;;5123399;27;19911;-43
2023/07/17 06:14:11;;;;;;;;;;;17.10;99.90;;;;;;5131990;27;20334;-43
2023/07/17 06:16:37;;;;;;;;;;;17.20;99.90;;;;;;5137353;27;19911;-43
2023/07/17 06:19:03;;;;;;;;;;;17.20;99.90;;;;;;5118176;27;20369;-43
2023/07/17 06:21:28;;;;;;;;;;;17.20;99.90;;;;;;5118783;28;19919;-42
2023/07/17 06:23:54;;;;;;;;;;;17.20;99.90;;;;;;5124370;28;20376;-44
2023/07/17 06:26:19;;;;;;;;;;;17.20;99.90;;;;;;5122440;28;20363;-43
2023/07/17 06:28:47;;;;;;;;;;;17.20;99.90;;;;;;5114904;28;20282;-43
2023/07/17 06:31:12;;;;;;;;;;;17.30;99.90;;;;;;5137178;27;19926;-41
2023/07/17 06:33:38;;;;;;;;;;;17.40;99.90;;;;;;5145247;27;19907;-45
2023/07/17 06:36:04;;;;;;;;;;;17.40;99.90;;;;;;5144658;27;19918;-45
2023/07/17 06:38:29;;;;;;;;;;;17.40;99.90;;;;;;5145118;27;20015;-43
2023/07/17 06:40:55;;;;;;;;;;;17.50;99.90;;;;;;5146537;27;20005;-42
2023/07/17 06:43:20;;;;;;;;;;;17.60;99.90;;;;;;5144887;27;20342;-44
2023/07/17 06:45:47;;;;;;;;;;;17.70;99.90;;;;;;5147022;27;19918;-45
2023/07/17 06:48:12;;;;;;;;;;;17.80;99.90;;;;;;5145955;27;20357;-43
2023/07/17 06:50:38;;;;;;;;;;;17.90;99.90;;;;;;5134924;27;19998;-42
2023/07/17 06:53:04;;;;;;;;;;;17.90;99.90;;;;;;5133074;27;19911;-42
2023/07/17 06:55:29;;;;;;;;;;;17.80;99.90;;;;;;5134124;27;19915;-44
2023/07/17 06:57:55;;;;;;;;;;;17.80;99.90;;;;;;5137336;27;20068;-43
2023/07/17 07:00:20;;;;;;;;;;;17.70;99.90;;;;;;5145333;27;19911;-44
2023/07/17 07:02:46;;;;;;;;;;;17.70;99.90;;;;;;5144597;27;20006;-47
2023/07/17 07:05:11;;;;;;;;;;;17.60;99.90;;;;;;5143002;27;20433;-49
2023/07/17 07:07:37;;;;;;;;;;;17.60;99.90;;;;;;5111188;27;19912;-43
2023/07/17 07:10:03;;;;;;;;;;;17.70;99.90;;;;;;5135433;27;19959;-45
2023/07/17 07:12:28;;;;;;;;;;;17.70;99.90;;;;;;5134437;27;20267;-42
2023/07/17 07:14:54;;;;;;;;;;;17.80;99.90;;;;;;5132853;27;19976;-43
2023/07/17 07:17:20;;;;;;;;;;;17.80;99.90;;;;;;5123590;27;19918;-43
2023/07/17 07:19:45;;;;;;;;;;;17.80;99.90;;;;;;5122104;27;19911;-43
2023/07/17 07:22:11;;;;;;;;;;;17.90;99.90;;;;;;5124323;27;19937;-43
2023/07/17 07:24:38;;;;;;;;;;;18.00;99.90;;;;;;5118953;27;20512;-42
2023/07/17 07:27:03;;;;;;;;;;;18.20;99.90;;;;;;5116276;27;19923;-44
2023/07/17 07:29:29;;;;;;;;;;;18.30;99.90;;;;;;5122492;27;19984;-44
2023/07/17 07:31:54;;;;;;;;;;;18.30;99.90;;;;;;5124382;27;22205;-41
2023/07/17 07:34:20;;;;;;;;;;;18.20;99.90;;;;;;5119106;27;20006;-44
2023/07/17 07:36:46;;;;;;;;;;;18.20;99.90;;;;;;5115088;27;19916;-43
2023/07/17 07:39:11;;;;;;;;;;;18.20;99.90;;;;;;5117838;27;19951;-43
2023/07/17 07:41:37;;;;;;;;;;;18.10;99.90;;;;;;5132882;27;20021;-43
2023/07/17 07:44:02;;;;;;;;;;;18.10;99.90;;;;;;5110312;27;19918;-42
2023/07/17 07:46:28;;;;;;;;;;;18.30;99.90;;;;;;5111634;27;19908;-41
2023/07/17 07:48:53;;;;;;;;;;;18.40;99.90;;;;;;5134434;27;19915;-43
2023/07/17 07:51:19;;;;;;;;;;;18.50;99.90;;;;;;5134367;27;20533;-42
2023/07/17 07:53:44;;;;;;;;;;;18.50;99.90;;;;;;5132950;27;19915;-45
2023/07/17 07:56:10;;;;;;;;;;;18.60;99.90;;;;;;5121638;27;19907;-42
2023/07/17 07:58:35;;;;;;;;;;;18.60;99.90;;;;;;5134356;27;19911;-43
2023/07/17 08:01:01;;;;;;;;;;;18.70;99.90;;;;;;5128377;27;20369;-44
2023/07/17 08:03:26;;;;;;;;;;;18.80;99.90;;;;;;5129180;27;20015;-43
2023/07/17 08:05:52;;;;;;;;;;;18.90;99.90;;;;;;5114216;28;19914;-43
2023/07/17 08:08:17;;;;;;;;;;;18.80;99.90;;;;;;5111792;28;20306;-45
2023/07/17 08:10:43;;;;;;;;;;;18.90;99.90;;;;;;5112452;28;19920;-42
2023/07/17 08:13:08;;;;;;;;;;;19.00;99.90;;;;;;5111823;28;19931;-43
2023/07/17 08:15:34;;;;;;;;;;;19.00;99.90;;;;;;5112745;28;20367;-44
2023/07/17 08:17:59;;;;;;;;;;;19.00;99.90;;;;;;5112519;28;19999;-43
2023/07/17 08:20:25;;;;;;;;;;;19.00;99.90;;;;;;5111847;28;20470;-42
2023/07/17 08:22:54;;;;;;;;;;;19.00;99.90;;;;;;5113535;28;19908;-43
2023/07/17 08:25:23;;;;;;;;;;;19.00;99.90;;;;;;5114298;28;19908;-44
2023/07/17 08:27:49;;;;;;;;;;;19.20;99.90;;;;;;5113525;28;20063;-44
2023/07/17 08:30:14;;;;;;;;;;;19.20;99.90;;;;;;5114629;27;20022;-42
2023/07/17 08:32:40;;;;;;;;;;;19.40;99.90;;;;;;5130189;27;19934;-44
2023/07/17 08:35:06;;;;;;;;;;;19.40;99.90;;;;;;5123781;27;19915;-43
2023/07/17 08:37:33;;;;;;;;;;;19.20;99.90;;;;;;5118632;27;20414;-43
2023/07/17 08:39:58;;;;;;;;;;;19.10;99.90;;;;;;5123508;27;20003;-43
2023/07/17 08:42:24;;;;;;;;;;;19.00;99.90;;;;;;5123918;27;19915;-43
2023/07/17 08:44:50;;;;;;;;;;;18.90;99.90;;;;;;5124725;27;19933;-43
2023/07/17 08:47:16;;;;;;;;;;;18.90;99.90;;;;;;5134361;27;20435;-42
2023/07/17 08:49:42;;;;;;;;;;;18.90;99.90;;;;;;5125129;27;19920;-44
2023/07/17 08:52:09;;;;;;;;;;;18.80;99.90;;;;;;5113657;28;19933;-44
2023/07/17 08:54:34;;;;;;;;;;;18.80;99.90;;;;;;5113839;28;20002;-45
2023/07/17 08:57:03;;;;;;;;;;;18.80;99.90;;;;;;5112490;28;19995;-42
2023/07/17 08:59:30;;;;;;;;;;;18.80;99.90;;;;;;5113759;28;19998;-43
2023/07/17 09:01:55;;;;;;;;;;;18.70;99.90;;;;;;5108635;28;19908;-43
2023/07/17 09:04:21;;;;;;;;;;;18.60;99.90;;;;;;5112577;28;19908;-44
2023/07/17 09:06:46;;;;;;;;;;;18.30;99.90;;;;;;5113534;28;20006;-43
2023/07/17 09:09:12;;;;;;;;;;;18.00;99.90;;;;;;5113557;28;19912;-44
2023/07/17 09:11:37;;;;;;;;;;;17.50;99.90;;;;;;5112753;28;20414;-43
2023/07/17 09:14:06;;;;;;;;;;;17.30;99.90;;;;;;5113459;28;19943;-43
2023/07/17 09:16:32;;;;;;;;;;;17.10;99.90;;;;;;5112526;28;19915;-42
2023/07/17 09:18:57;;;;;;;;;;;17.00;99.90;;;;;;5113300;28;19907;-45
2023/07/17 09:21:24;;;;;;;;;;;17.00;99.90;;;;;;5113428;28;19908;-45
2023/07/17 09:23:50;;;;;;;;;;;17.00;99.90;;;;;;5112508;28;19966;-46
2023/07/17 09:26:20;;;;;;;;;;;17.00;99.90;;;;;;5113405;28;20450;-45
2023/07/17 09:28:50;;;;;;;;;;;17.10;99.90;;;;;;5113220;28;20423;-44
2023/07/17 09:31:25;;;;;;;;;;;17.20;99.90;;;;;;5112294;28;20061;-43
2023/07/17 09:33:51;;;;;;;;;;;17.50;99.90;;;;;;5113141;28;20302;-43
2023/07/17 09:36:16;;;;;;;;;;;17.90;99.90;;;;;;5113206;28;19908;-44
2023/07/17 09:38:42;;;;;;;;;;;18.10;99.90;;;;;;5112380;28;19908;-43
2023/07/17 09:41:18;;;;;;;;;;;18.40;99.90;;;;;;5112886;28;19919;-45
2023/07/17 09:43:50;;;;;;;;;;;18.70;99.90;;;;;;5113073;28;20373;-42
2023/07/17 09:46:16;;;;;;;;;;;18.80;99.90;;;;;;5112006;28;19915;-47
2023/07/17 09:48:41;;;;;;;;;;;18.90;99.90;;;;;;5131624;28;20258;-43
2023/07/17 09:51:07;;;;;;;;;;;19.00;99.90;;;;;;5133022;28;20026;-43
2023/07/17 09:53:33;;;;;;;;;;;18.90;99.90;;;;;;5133002;28;20462;-43
2023/07/17 09:55:58;;;;;;;;;;;19.10;99.90;;;;;;5133559;28;20002;-41
2023/07/17 09:58:25;;;;;;;;;;;19.20;99.90;;;;;;5132213;28;19911;-43
2023/07/17 10:00:53;;;;;;;;;;;19.30;99.90;;;;;;5127923;28;19943;-43
2023/07/17 10:03:21;;;;;;;;;;;19.30;99.90;;;;;;5109804;28;19916;-41
2023/07/17 10:05:46;;;;;;;;;;;19.40;99.90;;;;;;5111610;28;19935;-43
2023/07/17 10:08:13;;;;;;;;;;;19.40;99.90;;;;;;5131675;27;19961;-44
2023/07/17 10:10:39;;;;;;;;;;;19.50;99.90;;;;;;5118908;27;19961;-43
2023/07/17 10:13:05;;;;;;;;;;;19.70;99.90;;;;;;5116045;27;20365;-41
2023/07/17 10:15:31;;;;;;;;;;;19.80;99.90;;;;;;5117944;27;19915;-43
2023/07/17 10:17:57;;;;;;;;;;;20.00;99.90;;;;;;5134444;27;19908;-43
2023/07/17 10:20:22;;;;;;;;;;;20.20;99.90;;;;;;5136590;27;19907;-45
2023/07/17 10:22:49;;;;;;;;;;;20.30;99.90;;;;;;5137042;27;19907;-42
2023/07/17 10:25:17;;;;;;;;;;;20.50;99.90;;;;;;5136995;27;20277;-41
2023/07/17 10:27:59;;;;;;;;;;;20.50;99.90;;;;;;5136192;27;19907;-42
2023/07/17 10:30:28;;;;;;;;;;;20.50;99.90;;;;;;5137007;27;19915;-42
2023/07/17 10:33:02;;;;;;;;;;;20.50;99.90;;;;;;5136894;27;19914;-42
2023/07/17 10:35:31;;;;;;;;;;;20.50;99.90;;;;;;5135720;27;20369;-48
2023/07/17 10:38:09;;;;;;;;;;;20.60;99.90;;;;;;5128968;27;19919;-45
2023/07/17 10:40:35;;;;;;;;;;;20.60;99.90;;;;;;5115075;27;20313;-43
2023/07/17 10:43:09;;;;;;;;;;;20.60;99.90;;;;;;5120699;27;19916;-43
2023/07/17 10:45:35;;;;;;;;;;;20.60;99.90;;;;;;5118698;27;19923;-42
2023/07/17 10:48:00;;;;;;;;;;;20.60;99.90;;;;;;5132442;27;19907;-43
2023/07/17 10:50:26;;;;;;;;;;;20.60;99.90;;;;;;5116058;27;20022;-42
2023/07/17 10:52:52;;;;;;;;;;;20.70;99.90;;;;;;5118405;27;19915;-45
2023/07/17 10:55:17;;;;;;;;;;;20.80;99.90;;;;;;5121942;27;19911;-42
2023/07/17 10:57:43;;;;;;;;;;;21.00;99.90;;;;;;5135943;27;19968;-42
2023/07/17 11:00:10;;;;;;;;;;;21.20;99.90;;;;;;5134024;27;19918;-46
2023/07/17 11:02:35;;;;;;;;;;;21.50;99.90;;;;;;5141764;27;19925;-42
2023/07/17 11:05:03;;;;;;;;;;;21.40;99.90;;;;;;5137815;27;20324;-41
2023/07/17 11:07:33;;;;;;;;;;;21.10;99.90;;;;;;5136010;27;19919;-43
2023/07/17 11:09:59;;;;;;;;;;;21.00;99.90;;;;;;5134173;27;19915;-42
2023/07/17 11:12:25;;;;;;;;;;;20.80;99.90;;;;;;5130422;27;19915;-44
2023/07/17 11:14:53;;;;;;;;;;;20.70;99.90;;;;;;5135501;27;20045;-48
2023/07/17 11:17:18;;;;;;;;;;;20.50;99.90;;;;;;5134291;27;19932;-43
2023/07/17 11:19:44;;;;;;;;;;;20.50;99.90;;;;;;5116744;27;20001;-43
2023/07/17 11:22:10;;;;;;;;;;;20.70;99.90;;;;;;5136864;27;20197;-43
2023/07/17 11:24:35;;;;;;;;;;;20.90;99.90;;;;;;5155044;27;19959;-43
2023/07/17 11:27:01;;;;;;;;;;;21.00;99.90;;;;;;5118275;27;19918;-44
2023/07/17 11:29:27;;;;;;;;;;;21.00;99.90;;;;;;5114733;28;19961;-44
2023/07/17 11:31:56;;;;;;;;;;;21.20;99.90;;;;;;5123387;27;19912;-43
2023/07/17 11:34:22;;;;;;;;;;;21.20;99.90;;;;;;5114648;28;19918;-44
2023/07/17 11:36:47;;;;;;;;;;;21.20;99.90;;;;;;5114648;28;19908;-43
2023/07/17 11:39:14;;;;;;;;;;;21.20;99.90;;;;;;5123132;27;19918;-44
2023/07/17 11:41:53;;;;;;;;;;;21.30;99.90;;;;;;5133492;27;19984;-43
2023/07/17 11:44:23;;;;;;;;;;;21.30;99.90;;;;;;5118752;27;19915;-44
2023/07/17 11:46:50;;;;;;;;;;;21.50;99.90;;;;;;5117159;27;20359;-43
2023/07/17 11:49:17;;;;;;;;;;;21.60;99.90;;;;;;5122544;27;20393;-43
2023/07/17 11:51:43;;;;;;;;;;;21.70;99.90;;;;;;5120173;27;19915;-42
2023/07/17 11:54:08;;;;;;;;;;;21.70;99.90;;;;;;5121252;27;20449;-44
2023/07/17 11:56:39;;;;;;;;;;;21.90;99.60;;;;;;5118380;27;19934;-43
2023/07/17 11:59:06;;;;;;;;;;;21.90;99.90;;;;;;5121733;27;19915;-44
2023/07/17 12:01:32;;;;;;;;;;;22.10;99.90;;;;;;5134892;27;19950;-44
2023/07/17 12:04:14;;;;;;;;;;;22.30;99.90;;;;;;5134582;27;19907;-43
2023/07/17 12:06:39;;;;;;;;;;;22.30;99.90;;;;;;5134308;27;19907;-43
2023/07/17 12:09:05;;;;;;;;;;;22.30;99.90;;;;;;5134717;27;19914;-43
2023/07/17 12:11:30;;;;;;;;;;;22.10;99.90;;;;;;5134765;27;20006;-45
2023/07/17 12:13:56;;;;;;;;;;;21.90;99.90;;;;;;5133877;27;20439;-43
2023/07/17 12:16:21;;;;;;;;;;;21.70;99.90;;;;;;5127979;27;19911;-42
2023/07/17 12:18:46;;;;;;;;;;;21.60;99.90;;;;;;5126125;27;19912;-45
2023/07/17 12:21:12;;;;;;;;;;;21.50;99.90;;;;;;5131452;27;19964;-42
2023/07/17 12:23:37;;;;;;;;;;;21.70;99.90;;;;;;5113341;27;19919;-48
2023/07/17 12:26:03;;;;;;;;;;;21.70;99.90;;;;;;5120915;27;20059;-41
2023/07/17 12:28:31;;;;;;;;;;;21.60;99.90;;;;;;5119737;27;19912;-45
2023/07/17 12:30:57;;;;;;;;;;;21.50;99.90;;;;;;5110096;27;20014;-43
2023/07/17 12:33:22;;;;;;;;;;;21.30;99.90;;;;;;5123925;27;20041;-41
2023/07/17 12:35:48;;;;;;;;;;;21.20;99.90;;;;;;5123152;27;19994;-43
2023/07/17 12:38:13;;;;;;;;;;;21.00;99.90;;;;;;5130247;27;19912;-42
2023/07/17 12:40:39;;;;;;;;;;;20.80;99.90;;;;;;5131044;27;19923;-45
2023/07/17 12:43:04;;;;;;;;;;;20.70;99.90;;;;;;5135112;27;20345;-42
2023/07/17 12:45:30;;;;;;;;;;;20.60;99.90;;;;;;5134519;27;19911;-45
2023/07/17 12:47:55;;;;;;;;;;;20.50;99.90;;;;;;5122403;27;19912;-43
2023/07/17 12:50:20;;;;;;;;;;;20.10;99.90;;;;;;5134365;27;20357;-44
2023/07/17 12:52:46;;;;;;;;;;;19.50;99.90;;;;;;5130445;27;19911;-42
2023/07/17 12:55:12;;;;;;;;;;;18.60;99.90;;;;;;5132095;27;19911;-41
2023/07/17 12:57:37;;;;;;;;;;;17.90;99.90;;;;;;5139684;27;20273;-44
2023/07/17 13:00:03;;;;;;;;;;;17.60;99.90;;;;;;5122032;27;19933;-40
2023/07/17 13:02:29;;;;;;;;;;;17.30;99.90;;;;;;5114479;27;19908;-41
2023/07/17 13:04:55;;;;;;;;;;;17.10;99.90;;;;;;5113234;28;19935;-40
2023/07/17 13:07:20;;;;;;;;;;;17.10;99.90;;;;;;5113519;28;19915;-41
2023/07/17 13:09:46;;;;;;;;;;;17.00;99.90;;;;;;5112644;28;19912;-41
2023/07/17 13:12:11;;;;;;;;;;;16.80;99.90;;;;;;5114977;27;20359;-46
2023/07/17 13:14:38;;;;;;;;;;;16.60;99.90;;;;;;5134028;27;19915;-43
2023/07/17 13:17:04;;;;;;;;;;;16.30;99.90;;;;;;5123881;27;20325;-44
2023/07/17 13:19:30;;;;;;;;;;;16.00;99.90;;;;;;5121101;27;19957;-48
2023/07/17 13:21:55;;;;;;;;;;;15.30;99.90;;;;;;5133845;27;19959;-48
2023/07/17 13:24:21;;;;;;;;;;;15.00;99.90;;;;;;5129586;27;20033;-48
2023/07/17 13:26:46;;;;;;;;;;;14.90;99.90;;;;;;5119293;27;20297;-45
2023/07/17 13:29:12;;;;;;;;;;;15.00;99.90;;;;;;5118287;27;19912;-45
2023/07/17 13:31:37;;;;;;;;;;;15.00;99.90;;;;;;5115761;27;19924;-45
2023/07/17 13:34:03;;;;;;;;;;;15.10;99.90;;;;;;5123403;27;19919;-43
2023/07/17 13:36:28;;;;;;;;;;;15.10;99.90;;;;;;5118086;28;19919;-46
2023/07/17 13:38:54;;;;;;;;;;;15.20;99.90;;;;;;5122306;28;19994;-46
2023/07/17 13:41:37;;;;;;;;;;;15.20;99.90;;;;;;5118217;28;19959;-44
2023/07/17 13:44:03;;;;;;;;;;;15.20;99.90;;;;;;5116684;28;19907;-45
2023/07/17 13:46:28;;;;;;;;;;;15.30;99.90;;;;;;5118957;27;20015;-44
2023/07/17 13:48:53;;;;;;;;;;;15.30;99.90;;;;;;5117570;28;19948;-44
2023/07/17 13:51:19;;;;;;;;;;;15.30;99.90;;;;;;5116461;28;19916;-44
2023/07/17 13:53:44;;;;;;;;;;;15.30;99.90;;;;;;5117252;28;20292;-44
2023/07/17 13:56:10;;;;;;;;;;;15.30;99.90;;;;;;5131581;27;19911;-43
2023/07/17 13:58:35;;;;;;;;;;;15.30;99.90;;;;;;5131968;27;19912;-43
2023/07/17 14:01:01;;;;;;;;;;;15.50;99.90;;;;;;5117102;28;20358;-42
2023/07/17 14:03:26;;;;;;;;;;;15.70;99.90;;;;;;5117190;28;19908;-43
2023/07/17 14:05:52;;;;;;;;;;;15.90;99.90;;;;;;5118219;27;20412;-43
2023/07/17 14:08:17;;;;;;;;;;;16.20;99.90;;;;;;5142912;27;19911;-43